Time;durP1;ratioP1;P1;durP2;ratioP2;P2;SDS_P1;SDS_P2;PMS_P1;PMS_P2;Temp;Humidity;BMP_temperature;BMP_pressure;BME280_temperature;BME280_humidity;BME280_pressure;Samples;Min_cycle;Max_cycle;Signal;HPM_P1;HPM_P2
2023/06/29 00:01:55;;;;;;;4.20;3.50;;;19.30;99.90;;;;;;5003605;28;20239;-50
2023/06/29 00:04:25;;;;;;;4.07;3.17;;;19.30;99.90;;;;;;5023111;28;20357;-55
2023/06/29 00:06:52;;;;;;;8.90;3.67;;;19.30;99.90;;;;;;5023733;28;20550;-57
2023/06/29 00:09:19;;;;;;;4.17;3.43;;;19.30;99.90;;;;;;5010934;28;20673;-56
2023/06/29 00:11:46;;;;;;;4.10;3.70;;;19.30;99.90;;;;;;5023959;28;20254;-57
2023/06/29 00:14:13;;;;;;;4.90;4.30;;;19.30;99.90;;;;;;5022136;28;20211;-57
2023/06/29 00:16:40;;;;;;;3.97;3.63;;;19.30;99.90;;;;;;5004421;28;20216;-56
2023/06/29 00:19:08;;;;;;;4.47;4.07;;;19.30;99.90;;;;;;5020262;28;20278;-51
2023/06/29 00:21:35;;;;;;;6.27;4.63;;;19.30;99.90;;;;;;5018368;28;20243;-53
2023/06/29 00:24:02;;;;;;;6.17;3.97;;;19.20;99.90;;;;;;5021605;28;20204;-51
2023/06/29 00:26:30;;;;;;;5.53;4.30;;;19.20;99.90;;;;;;5015383;28;20200;-50
2023/06/29 00:28:57;;;;;;;8.93;3.23;;;19.20;99.90;;;;;;5023198;28;20199;-55
2023/06/29 00:31:24;;;;;;;5.97;4.07;;;19.20;99.90;;;;;;5020511;28;20212;-53
2023/06/29 00:33:51;;;;;;;3.80;3.50;;;19.20;99.90;;;;;;4985110;28;20196;-53
2023/06/29 00:36:20;;;;;;;5.97;4.20;;;19.20;99.90;;;;;;5023488;28;20192;-53
2023/06/29 00:38:48;;;;;;;6.37;3.30;;;19.20;99.90;;;;;;5020698;28;20912;-50
2023/06/29 00:41:16;;;;;;;4.70;3.93;;;19.20;99.90;;;;;;5016420;28;20226;-49
2023/06/29 00:43:46;;;;;;;4.70;4.17;;;19.20;99.90;;;;;;5019456;28;20184;-53
2023/06/29 00:46:17;;;;;;;4.03;3.63;;;19.20;99.90;;;;;;5018477;28;20732;-49
2023/06/29 00:48:44;;;;;;;5.20;3.47;;;19.20;99.90;;;;;;4988545;28;20254;-51
2023/06/29 00:51:12;;;;;;;6.93;3.70;;;19.20;99.90;;;;;;5013327;28;20733;-55
2023/06/29 00:53:40;;;;;;;3.90;3.50;;;19.20;99.90;;;;;;5021546;28;20601;-58
2023/06/29 00:56:07;;;;;;;4.03;3.70;;;19.20;99.90;;;;;;5021322;28;20191;-58
2023/06/29 00:58:34;;;;;;;4.17;3.20;;;19.20;99.90;;;;;;5009585;28;20203;-57
2023/06/29 01:01:01;;;;;;;3.70;3.13;;;19.20;99.90;;;;;;5022159;28;20257;-55
2023/06/29 01:03:30;;;;;;;3.40;3.10;;;19.20;99.90;;;;;;5002972;28;20200;-57
2023/06/29 01:06:04;;;;;;;6.03;3.60;;;19.20;99.90;;;;;;5021274;28;20199;-52
2023/06/29 01:08:36;;;;;;;4.07;3.67;;;19.20;99.90;;;;;;5015804;28;20694;-57
2023/06/29 01:11:05;;;;;;;4.87;3.63;;;19.20;99.90;;;;;;5017910;28;20612;-50
2023/06/29 01:13:33;;;;;;;5.23;3.60;;;19.20;99.90;;;;;;5015595;28;20227;-55
2023/06/29 01:16:01;;;;;;;3.03;2.83;;;19.20;99.90;;;;;;5023036;28;20195;-55
2023/06/29 01:18:30;;;;;;;4.00;3.70;;;19.20;99.90;;;;;;5015648;28;20200;-57
2023/06/29 01:20:57;;;;;;;4.30;4.00;;;19.20;99.90;;;;;;4996364;28;20214;-57
2023/06/29 01:23:26;;;;;;;4.90;4.40;;;19.10;99.90;;;;;;5022497;28;20262;-57
2023/06/29 01:25:55;;;;;;;4.33;4.03;;;19.20;99.90;;;;;;5020047;28;20515;-58
2023/06/29 01:28:22;;;;;;;4.60;4.27;;;19.20;99.90;;;;;;5015877;28;20544;-54
2023/06/29 01:30:49;;;;;;;4.30;3.90;;;19.20;99.90;;;;;;5018723;28;20192;-56
2023/06/29 01:33:21;;;;;;;4.47;4.17;;;19.20;99.90;;;;;;5016949;28;20248;-57
2023/06/29 01:35:52;;;;;;;4.00;3.60;;;19.10;99.90;;;;;;5000557;28;20296;-56
2023/06/29 01:38:24;;;;;;;3.63;3.43;;;19.20;99.90;;;;;;5023148;28;20192;-46
2023/06/29 01:40:54;;;;;;;3.83;3.53;;;19.20;99.90;;;;;;5017859;28;20208;-51
2023/06/29 01:43:24;;;;;;;6.47;4.63;;;19.20;99.90;;;;;;5015457;28;20218;-52
2023/06/29 01:45:52;;;;;;;5.47;4.97;;;19.20;99.90;;;;;;5013644;28;20188;-53
2023/06/29 01:48:19;;;;;;;5.57;4.60;;;19.10;99.90;;;;;;5023089;28;20196;-53
2023/06/29 01:50:48;;;;;;;4.80;4.37;;;19.10;99.90;;;;;;4998495;28;20224;-57
2023/06/29 01:53:15;;;;;;;4.37;3.97;;;19.10;99.90;;;;;;5023444;28;20258;-55
2023/06/29 01:55:42;;;;;;;4.93;4.50;;;19.10;99.90;;;;;;5010387;28;20196;-51
2023/06/29 01:58:09;;;;;;;4.90;4.50;;;19.10;99.90;;;;;;5016373;28;20254;-48
2023/06/29 02:00:38;;;;;;;8.67;5.60;;;19.10;99.90;;;;;;5011924;28;20219;-54
2023/06/29 02:03:05;;;;;;;6.57;5.73;;;19.10;99.90;;;;;;5022068;28;20702;-48
2023/06/29 02:05:32;;;;;;;7.30;4.97;;;19.00;99.90;;;;;;5005447;28;20671;-57
2023/06/29 02:08:01;;;;;;;6.73;5.87;;;19.00;99.90;;;;;;5018233;28;20309;-50
2023/06/29 02:10:28;;;;;;;8.13;6.77;;;19.00;99.90;;;;;;5016606;28;20196;-54
2023/06/29 02:12:55;;;;;;;7.23;6.53;;;19.00;99.90;;;;;;5017137;28;20204;-51
2023/06/29 02:15:22;;;;;;;7.20;6.50;;;19.00;99.90;;;;;;5015569;28;20227;-56
2023/06/29 02:17:50;;;;;;;7.77;6.83;;;19.00;99.90;;;;;;5018413;28;20196;-54
2023/06/29 02:20:18;;;;;;;8.37;7.03;;;19.00;99.90;;;;;;5018088;28;20259;-50
2023/06/29 02:22:45;;;;;;;7.40;6.70;;;19.00;99.90;;;;;;4998695;28;20291;-52
2023/06/29 02:25:14;;;;;;;8.57;7.13;;;19.00;99.90;;;;;;5022185;28;20703;-51
2023/06/29 02:27:41;;;;;;;8.13;7.40;;;18.90;99.90;;;;;;5018235;28;20191;-51
2023/06/29 02:30:09;;;;;;;8.13;7.33;;;18.90;99.90;;;;;;5015871;28;20207;-53
2023/06/29 02:32:36;;;;;;;8.27;7.57;;;18.90;99.90;;;;;;5012229;28;20234;-55
2023/06/29 02:35:05;;;;;;;10.63;5.80;;;18.90;99.90;;;;;;5020498;28;20192;-55
2023/06/29 02:37:33;;;;;;;6.73;6.23;;;19.00;99.90;;;;;;4997811;28;20281;-55
2023/06/29 02:40:00;;;;;;;7.43;6.07;;;19.00;99.90;;;;;;5019143;28;20634;-54
2023/06/29 02:42:27;;;;;;;8.20;6.70;;;18.90;99.90;;;;;;5020487;28;20330;-51
2023/06/29 02:44:54;;;;;;;7.37;6.60;;;19.00;99.90;;;;;;5005326;28;20382;-56
2023/06/29 02:47:21;;;;;;;7.83;7.13;;;18.90;99.90;;;;;;5020256;28;20788;-53
2023/06/29 02:49:48;;;;;;;7.50;6.50;;;18.90;99.90;;;;;;5018043;28;20200;-54
2023/06/29 02:52:19;;;;;;;8.47;7.77;;;18.90;99.90;;;;;;5022659;28;20718;-56
2023/06/29 02:54:46;;;;;;;7.93;7.23;;;18.90;99.90;;;;;;4999403;28;20184;-58
2023/06/29 02:57:17;;;;;;;8.00;7.20;;;18.90;99.90;;;;;;5012755;28;20196;-53
2023/06/29 02:59:45;;;;;;;8.27;7.23;;;18.90;99.90;;;;;;5013482;28;20208;-50
2023/06/29 03:02:12;;;;;;;9.77;8.80;;;18.80;99.90;;;;;;5014381;28;20331;-53
2023/06/29 03:04:38;;;;;;;9.37;8.57;;;18.80;99.90;;;;;;5028841;28;20188;-51
2023/06/29 03:07:05;;;;;;;10.40;9.40;;;18.80;99.90;;;;;;5019055;28;20208;-50
2023/06/29 03:09:34;;;;;;;9.10;8.30;;;18.80;99.90;;;;;;4988378;28;20204;-55
2023/06/29 03:12:00;;;;;;;11.40;10.33;;;18.80;99.90;;;;;;5020610;28;20227;-52
2023/06/29 03:14:27;;;;;;;11.53;10.37;;;18.80;99.90;;;;;;5020708;28;20204;-55
2023/06/29 03:16:54;;;;;;;12.00;10.80;;;18.80;99.90;;;;;;5013893;28;20285;-52
2023/06/29 03:19:21;;;;;;;13.90;11.57;;;18.80;99.90;;;;;;5018856;28;20195;-54
2023/06/29 03:21:48;;;;;;;12.90;11.57;;;18.80;99.90;;;;;;5016436;28;20266;-56
2023/06/29 03:24:15;;;;;;;12.60;11.47;;;18.80;99.90;;;;;;5001419;28;20232;-53
2023/06/29 03:26:43;;;;;;;13.17;11.97;;;18.70;99.90;;;;;;5018252;28;20250;-50
2023/06/29 03:29:10;;;;;;;12.70;11.43;;;18.80;99.90;;;;;;5023956;28;20202;-55
2023/06/29 03:31:37;;;;;;;13.90;12.43;;;18.80;99.90;;;;;;5012861;28;20941;-55
2023/06/29 03:34:04;;;;;;;15.73;13.40;;;18.80;99.90;;;;;;5022482;28;20274;-57
2023/06/29 03:36:31;;;;;;;15.87;14.03;;;18.80;99.90;;;;;;5023525;28;20199;-59
2023/06/29 03:38:57;;;;;;;15.53;14.00;;;18.80;99.90;;;;;;5009269;28;20698;-56
2023/06/29 03:41:24;;;;;;;14.77;12.97;;;18.80;99.90;;;;;;5024450;28;20278;-57
2023/06/29 03:43:52;;;;;;;17.27;14.77;;;18.80;99.90;;;;;;5019959;28;20188;-54
2023/06/29 03:46:19;;;;;;;16.40;14.70;;;18.80;99.90;;;;;;5024440;28;20196;-60
2023/06/29 03:48:46;;;;;;;16.97;15.23;;;18.80;99.90;;;;;;5015561;28;20267;-57
2023/06/29 03:51:13;;;;;;;17.87;15.93;;;18.80;99.90;;;;;;5026022;28;20220;-57
2023/06/29 03:53:39;;;;;;;19.47;17.37;;;18.80;99.90;;;;;;5019780;28;20867;-55
2023/06/29 03:56:06;;;;;;;20.80;17.40;;;18.80;99.90;;;;;;4998202;28;20243;-57
2023/06/29 03:58:33;;;;;;;20.03;17.93;;;18.80;99.90;;;;;;5022298;28;20273;-56
2023/06/29 04:01:01;;;;;;;21.73;16.80;;;18.80;99.90;;;;;;5024907;28;20232;-53
2023/06/29 04:03:28;;;;;;;20.23;18.13;;;18.80;99.90;;;;;;5016765;28;20215;-57
2023/06/29 04:05:55;;;;;;;19.70;17.73;;;18.80;99.90;;;;;;5023438;28;20190;-57
2023/06/29 04:08:22;;;;;;;20.13;17.97;;;18.80;99.90;;;;;;5018648;28;20196;-58
2023/06/29 04:10:49;;;;;;;23.03;20.67;;;18.80;99.90;;;;;;5007548;28;20519;-58
2023/06/29 04:13:16;;;;;;;22.10;19.80;;;18.80;99.90;;;;;;5025745;28;20631;-57
2023/06/29 04:15:44;;;;;;;21.87;19.47;;;18.90;99.90;;;;;;5014833;28;20216;-56
2023/06/29 04:18:13;;;;;;;23.50;19.33;;;18.90;99.90;;;;;;5025800;28;20736;-56
2023/06/29 04:20:39;;;;;;;22.37;20.00;;;18.90;99.90;;;;;;5010889;28;20223;-59
2023/06/29 04:23:06;;;;;;;23.77;21.27;;;18.80;99.90;;;;;;5019587;28;20212;-58
2023/06/29 04:25:33;;;;;;;24.77;20.97;;;18.80;99.90;;;;;;5021643;28;20188;-58
2023/06/29 04:28:00;;;;;;;23.93;21.37;;;18.80;99.90;;;;;;5004917;28;20250;-58
2023/06/29 04:30:27;;;;;;;21.87;19.53;;;18.90;99.90;;;;;;5020282;28;20655;-57
2023/06/29 04:32:56;;;;;;;22.77;20.47;;;18.90;99.90;;;;;;5019828;28;20286;-57
2023/06/29 04:35:24;;;;;;;21.80;19.43;;;18.90;99.90;;;;;;5012100;28;20203;-57
2023/06/29 04:37:51;;;;;;;23.13;20.60;;;18.90;99.90;;;;;;5015444;28;20203;-59
2023/06/29 04:40:17;;;;;;;23.53;21.03;;;19.00;99.90;;;;;;5019118;28;20239;-58
2023/06/29 04:42:45;;;;;;;23.00;20.50;;;19.00;99.90;;;;;;5001668;28;20386;-59
2023/06/29 04:45:17;;;;;;;24.33;21.83;;;19.00;99.90;;;;;;5020653;28;20658;-58
2023/06/29 04:47:45;;;;;;;24.07;20.70;;;19.10;99.90;;;;;;5023606;28;20196;-60
2023/06/29 04:50:12;;;;;;;24.80;21.17;;;19.10;99.90;;;;;;5019421;28;20288;-58
2023/06/29 04:52:41;;;;;;;24.10;21.50;;;19.00;99.90;;;;;;5015917;28;20290;-58
2023/06/29 04:55:09;;;;;;;24.80;22.03;;;19.10;99.90;;;;;;5010440;28;20254;-55
2023/06/29 04:57:36;;;;;;;27.43;21.43;;;19.10;99.90;;;;;;5015097;28;20658;-59
2023/06/29 05:00:07;;;;;;;25.70;22.07;;;19.10;99.90;;;;;;4993761;28;20227;-56
2023/06/29 05:02:34;;;;;;;24.70;22.20;;;19.10;99.90;;;;;;5021470;28;20772;-59
2023/06/29 05:05:01;;;;;;;26.37;22.17;;;19.10;99.90;;;;;;5017613;28;20200;-56
2023/06/29 05:07:28;;;;;;;26.10;22.13;;;19.10;99.90;;;;;;5015705;28;20222;-59
2023/06/29 05:09:56;;;;;;;25.17;22.37;;;19.10;99.90;;;;;;5012025;28;20215;-57
2023/06/29 05:12:23;;;;;;;26.77;21.73;;;19.10;99.90;;;;;;5019013;28;20216;-59
2023/06/29 05:14:50;;;;;;;28.30;22.17;;;19.20;99.90;;;;;;4995638;28;20279;-54
2023/06/29 05:17:17;;;;;;;27.27;22.53;;;19.20;99.90;;;;;;5019704;28;20192;-56
2023/06/29 05:19:45;;;;;;;23.80;20.80;;;19.30;99.90;;;;;;5014747;28;20188;-48
2023/06/29 05:22:11;;;;;;;25.13;21.70;;;19.30;99.90;;;;;;5015338;28;20215;-56
2023/06/29 05:24:38;;;;;;;24.77;21.17;;;19.30;99.90;;;;;;5018827;28;20235;-55
2023/06/29 05:27:08;;;;;;;25.70;21.43;;;19.30;99.90;;;;;;5009277;28;21178;-54
2023/06/29 05:29:35;;;;;;;28.50;21.93;;;19.40;99.90;;;;;;5001699;28;20212;-57
2023/06/29 05:32:02;;;;;;;27.30;21.17;;;19.40;99.90;;;;;;5005588;28;20240;-53
2023/06/29 05:34:28;;;;;;;23.33;20.57;;;19.40;99.90;;;;;;5021985;28;20745;-58
2023/06/29 05:36:55;;;;;;;28.63;21.73;;;19.40;99.90;;;;;;5011897;28;20265;-47
2023/06/29 05:39:22;;;;;;;25.87;20.57;;;19.40;99.90;;;;;;5016621;28;20675;-54
2023/06/29 05:41:49;;;;;;;24.30;19.87;;;19.40;99.90;;;;;;5018337;28;20239;-55
2023/06/29 05:44:17;;;;;;;28.80;20.10;;;19.40;99.90;;;;;;5010553;28;20202;-50
2023/06/29 05:46:44;;;;;;;24.30;19.13;;;19.40;99.90;;;;;;4990244;28;20208;-44
2023/06/29 05:49:11;;;;;;;27.00;20.93;;;19.40;99.90;;;;;;5020494;28;20180;-53
2023/06/29 05:51:38;;;;;;;23.33;19.50;;;19.50;99.90;;;;;;5023007;28;20694;-52
2023/06/29 05:54:05;;;;;;;23.60;19.10;;;19.50;99.90;;;;;;5012545;28;20200;-55
2023/06/29 05:56:32;;;;;;;23.77;19.20;;;19.50;99.90;;;;;;5010654;28;20199;-58
2023/06/29 05:58:59;;;;;;;23.57;18.57;;;19.50;99.90;;;;;;5016309;28;20271;-56
2023/06/29 06:01:27;;;;;;;24.43;18.23;;;19.50;99.90;;;;;;5000225;28;20752;-53
2023/06/29 06:03:54;;;;;;;24.83;18.43;;;19.60;99.90;;;;;;5012668;28;20212;-52
2023/06/29 06:06:21;;;;;;;24.67;17.87;;;19.60;99.90;;;;;;5007778;28;20227;-50
2023/06/29 06:08:48;;;;;;;25.83;18.97;;;19.60;99.90;;;;;;5011857;28;20200;-44
2023/06/29 06:11:14;;;;;;;26.73;18.10;;;19.70;99.90;;;;;;5010031;28;20298;-49
2023/06/29 06:13:41;;;;;;;23.30;18.83;;;19.70;99.90;;;;;;5021869;28;20327;-47
2023/06/29 06:16:08;;;;;;;23.23;19.67;;;19.80;99.90;;;;;;4998129;28;20222;-63
2023/06/29 06:18:36;;;;;;;22.50;18.57;;;19.80;99.90;;;;;;5006445;28;20916;-63
2023/06/29 06:21:03;;;;;;;25.97;17.17;;;19.80;99.90;;;;;;5013661;28;20221;-63
2023/06/29 06:23:30;;;;;;;24.17;17.77;;;19.80;99.90;;;;;;5012719;28;20198;-63
2023/06/29 06:25:57;;;;;;;22.57;18.50;;;19.80;99.90;;;;;;5016623;28;20227;-63
2023/06/29 06:28:24;;;;;;;25.30;18.47;;;19.90;99.90;;;;;;5013445;28;21576;-63
2023/06/29 06:30:52;;;;;;;24.30;17.37;;;20.00;99.90;;;;;;4998730;28;20192;-63
2023/06/29 06:33:18;;;;;;;25.17;18.23;;;20.00;99.90;;;;;;5001958;28;21324;-63
2023/06/29 06:35:46;;;;;;;20.80;16.17;;;20.10;99.90;;;;;;5022072;28;20204;-63
2023/06/29 06:38:13;;;;;;;23.00;16.80;;;20.10;99.90;;;;;;5012987;28;20220;-61
2023/06/29 06:40:40;;;;;;;22.77;16.83;;;20.10;99.90;;;;;;5022035;28;20269;-61
2023/06/29 06:43:07;;;;;;;21.27;15.80;;;20.20;99.90;;;;;;5010367;28;20274;-61
2023/06/29 06:45:34;;;;;;;26.53;18.47;;;20.20;99.90;;;;;;5020304;28;20855;-62
2023/06/29 06:48:00;;;;;;;22.60;16.40;;;20.20;99.90;;;;;;5001683;28;20203;-62
2023/06/29 06:50:27;;;;;;;25.50;17.53;;;20.20;99.90;;;;;;5012813;28;21077;-62
2023/06/29 06:52:55;;;;;;;22.70;16.93;;;20.30;99.90;;;;;;5023338;28;20207;-63
2023/06/29 06:55:22;;;;;;;25.10;16.13;;;20.30;99.90;;;;;;5006429;28;20195;-63
2023/06/29 06:57:49;;;;;;;20.70;15.37;;;20.30;99.90;;;;;;5022650;28;20670;-63
2023/06/29 07:00:17;;;;;;;18.93;15.97;;;20.30;99.90;;;;;;5013263;28;20862;-63
2023/06/29 07:02:43;;;;;;;24.13;16.77;;;20.40;99.90;;;;;;5000982;28;20231;-62
2023/06/29 07:05:10;;;;;;;25.63;17.27;;;20.40;99.90;;;;;;5012638;28;20362;-61
2023/06/29 07:07:37;;;;;;;22.37;17.03;;;20.40;99.90;;;;;;5016041;28;20627;-61
2023/06/29 07:10:06;;;;;;;22.27;16.83;;;20.40;99.90;;;;;;5013489;28;20266;-61
2023/06/29 07:12:33;;;;;;;24.97;17.80;;;20.50;99.90;;;;;;5021242;28;20204;-63
2023/06/29 07:15:00;;;;;;;23.23;18.13;;;20.60;99.90;;;;;;5016646;28;20306;-62
2023/06/29 07:17:27;;;;;;;22.33;16.37;;;20.70;99.90;;;;;;4998327;28;20203;-63
2023/06/29 07:19:54;;;;;;;27.93;16.90;;;20.70;99.90;;;;;;5012655;28;20283;-62
2023/06/29 07:22:21;;;;;;;23.33;17.23;;;20.70;99.90;;;;;;5016046;28;20231;-63
2023/06/29 07:24:48;;;;;;;24.57;17.03;;;20.80;99.90;;;;;;5021563;28;20285;-62
2023/06/29 07:27:16;;;;;;;27.13;17.23;;;20.90;99.90;;;;;;5011596;28;20250;-63
2023/06/29 07:29:44;;;;;;;23.93;17.37;;;20.90;99.90;;;;;;5015457;28;20270;-63
2023/06/29 07:32:12;;;;;;;21.52;15.73;;;21.00;99.90;;;;;;5014437;28;20286;-63
2023/06/29 07:34:39;;;;;;;19.87;15.07;;;21.10;99.90;;;;;;5001882;28;20200;-63
2023/06/29 07:37:06;;;;;;;24.57;16.73;;;21.30;99.90;;;;;;5010509;28;20228;-62
2023/06/29 07:39:34;;;;;;;20.80;16.20;;;21.30;99.90;;;;;;5022512;28;20246;-63
2023/06/29 07:42:00;;;;;;;24.20;15.75;;;21.30;99.90;;;;;;5007796;28;20524;-62
2023/06/29 07:44:29;;;;;;;25.33;17.02;;;21.40;99.90;;;;;;5012373;28;20227;-63
2023/06/29 07:46:55;;;;;;;24.75;16.48;;;21.30;99.90;;;;;;5015342;28;20208;-62
2023/06/29 07:49:22;;;;;;;25.02;16.08;;;21.40;99.90;;;;;;4999037;28;20196;-63
2023/06/29 07:51:49;;;;;;;22.13;15.45;;;21.40;99.90;;;;;;5014690;28;20213;-62
2023/06/29 07:54:17;;;;;;;23.88;15.27;;;21.40;99.90;;;;;;5013311;28;20204;-64
2023/06/29 07:56:43;;;;;;;22.60;16.38;;;21.50;99.90;;;;;;5012229;28;20200;-63
2023/06/29 07:59:10;;;;;;;22.42;14.25;;;21.60;99.90;;;;;;5017002;28;20267;-63
2023/06/29 08:01:39;;;;;;;22.27;16.33;;;21.70;99.90;;;;;;5017026;28;20243;-62
2023/06/29 08:04:06;;;;;;;21.95;16.65;;;21.70;99.90;;;;;;4999316;28;20617;-61
2023/06/29 08:06:33;;;;;;;23.52;15.00;;;21.70;99.90;;;;;;5009218;28;20262;-62
2023/06/29 08:09:00;;;;;;;20.42;15.48;;;21.80;99.90;;;;;;5018555;28;20197;-61
2023/06/29 08:11:27;;;;;;;21.90;14.85;;;21.80;99.90;;;;;;5013213;28;20301;-62
2023/06/29 08:13:54;;;;;;;23.10;14.80;;;21.80;99.90;;;;;;5020931;28;20658;-61
2023/06/29 08:16:21;;;;;;;20.67;15.82;;;21.80;99.90;;;;;;5022600;28;20204;-62
2023/06/29 08:18:50;;;;;;;22.92;15.35;;;22.00;99.90;;;;;;5013851;28;20203;-61
2023/06/29 08:21:16;;;;;;;23.63;15.40;;;22.10;99.90;;;;;;5000203;28;20278;-62
2023/06/29 08:23:43;;;;;;;22.95;15.75;;;22.20;99.90;;;;;;5017895;28;20724;-62
2023/06/29 08:26:10;;;;;;;21.42;15.05;;;22.20;99.90;;;;;;5012766;28;20219;-62
2023/06/29 08:28:37;;;;;;;23.52;15.55;;;22.20;99.90;;;;;;5024335;28;20231;-63
2023/06/29 08:31:04;;;;;;;25.45;16.20;;;22.20;99.90;;;;;;5013155;28;20188;-62
2023/06/29 08:33:30;;;;;;;25.50;16.23;;;22.30;99.90;;;;;;5010703;28;20603;-62
2023/06/29 08:35:58;;;;;;;22.35;15.27;;;22.20;99.90;;;;;;5004335;28;20254;-61
2023/06/29 08:38:25;;;;;;;23.27;15.80;;;22.20;99.90;;;;;;5014916;28;20258;-62
2023/06/29 08:40:53;;;;;;;21.05;15.45;;;22.40;99.90;;;;;;5024225;28;20223;-62
2023/06/29 08:43:19;;;;;;;22.83;16.08;;;22.40;99.90;;;;;;5009328;28;20219;-63
2023/06/29 08:45:46;;;;;;;20.50;14.85;;;22.40;99.90;;;;;;5023162;28;20811;-63
2023/06/29 08:48:14;;;;;;;24.27;16.52;;;22.50;99.90;;;;;;5015259;28;20207;-63
2023/06/29 08:50:46;;;;;;;22.13;16.33;;;22.60;99.90;;;;;;5000924;28;20219;-63
2023/06/29 08:53:15;;;;;;;23.40;14.63;;;22.70;99.90;;;;;;5015099;28;20200;-61
2023/06/29 08:55:43;;;;;;;22.50;16.45;;;22.70;99.90;;;;;;5017843;28;20302;-63
2023/06/29 08:58:11;;;;;;;24.02;15.50;;;22.80;99.90;;;;;;5016299;28;20231;-63
2023/06/29 09:00:38;;;;;;;22.75;15.40;;;22.80;99.90;;;;;;5003729;28;20232;-63
2023/06/29 09:03:05;;;;;;;19.20;15.05;;;22.90;99.90;;;;;;5012863;28;20365;-63
2023/06/29 09:05:34;;;;;;;24.10;15.45;;;22.90;99.90;;;;;;5015806;28;20211;-62
2023/06/29 09:08:01;;;;;;;24.67;16.33;;;23.00;99.90;;;;;;4999444;28;20209;-63
2023/06/29 09:10:31;;;;;;;28.33;17.00;;;23.00;99.90;;;;;;5021253;28;20714;-63
2023/06/29 09:12:58;;;;;;;21.33;15.38;;;23.10;99.90;;;;;;5007472;28;20237;-64
2023/06/29 09:15:25;;;;;;;22.65;15.68;;;23.20;99.90;;;;;;5018608;28;20670;-63
2023/06/29 09:17:55;;;;;;;24.63;16.73;;;23.30;99.90;;;;;;5014774;28;20185;-63
2023/06/29 09:20:56;;;;;;;25.17;17.25;;;23.40;99.90;;;;;;5013236;28;20204;-63
2023/06/29 09:23:23;;;;;;;28.80;16.88;;;23.50;99.90;;;;;;4936331;28;20234;-63
2023/06/29 09:25:54;;;;;;;25.52;15.90;;;23.40;99.90;;;;;;4958170;28;20742;-63
2023/06/29 09:28:21;;;;;;;22.70;16.70;;;23.30;99.90;;;;;;4985549;28;20204;-64
2023/06/29 09:30:49;;;;;;;24.33;17.35;;;23.30;99.90;;;;;;5014617;28;20220;-63
2023/06/29 09:33:16;;;;;;;23.58;15.20;;;23.40;99.90;;;;;;5023200;28;20198;-63
2023/06/29 09:35:45;;;;;;;21.23;15.00;;;23.30;99.90;;;;;;5014227;28;20297;-63
2023/06/29 09:38:14;;;;;;;23.17;15.35;;;23.30;99.90;;;;;;4995553;28;20282;-63
2023/06/29 09:40:48;;;;;;;22.27;16.30;;;23.30;99.90;;;;;;5020160;28;20220;-63
2023/06/29 09:43:21;;;;;;;22.48;15.38;;;23.30;99.90;;;;;;5017232;28;20219;-63
2023/06/29 09:45:48;;;;;;;25.45;15.98;;;23.40;99.90;;;;;;5011092;28;20315;-63
2023/06/29 09:48:15;;;;;;;22.13;14.63;;;23.40;99.90;;;;;;5021886;28;20193;-63
2023/06/29 09:50:49;;;;;;;21.42;15.43;;;23.50;99.90;;;;;;5018121;28;20196;-62
2023/06/29 09:53:16;;;;;;;23.40;15.30;;;23.60;99.90;;;;;;4996493;28;20207;-41
2023/06/29 09:55:43;;;;;;;20.17;15.77;;;23.80;99.90;;;;;;5010755;28;20753;-46
2023/06/29 09:58:11;;;;;;;25.00;15.82;;;23.90;99.90;;;;;;5022359;28;20191;-42
2023/06/29 10:00:40;;;;;;;22.88;16.30;;;23.90;99.90;;;;;;5015222;28;20287;-42
2023/06/29 10:03:07;;;;;;;25.85;16.42;;;24.00;99.90;;;;;;5014193;28;20231;-45
2023/06/29 10:05:34;;;;;;;22.98;16.48;;;24.00;99.90;;;;;;5014248;28;20297;-44
2023/06/29 10:08:07;;;;;;;25.23;17.15;;;24.00;99.90;;;;;;4994940;28;20215;-43
2023/06/29 10:10:35;;;;;;;22.85;17.05;;;24.00;99.90;;;;;;5012358;28;20192;-42
2023/06/29 10:13:05;;;;;;;24.20;17.48;;;24.20;99.90;;;;;;5023447;28;20278;-42
2023/06/29 10:15:34;;;;;;;23.10;17.02;;;24.10;99.90;;;;;;5012941;28;20200;-44
2023/06/29 10:18:09;;;;;;;23.60;17.13;;;24.10;99.90;;;;;;5017260;28;20254;-41
2023/06/29 10:20:38;;;;;;;22.73;16.33;;;24.20;99.90;;;;;;5015257;28;20203;-41
2023/06/29 10:23:07;;;;;;;28.73;17.50;;;24.30;99.90;;;;;;5017861;28;20956;-44
2023/06/29 10:25:36;;;;;;;28.55;17.73;;;24.20;99.90;;;;;;4996687;28;20271;-42
2023/06/29 10:28:04;;;;;;;28.67;18.15;;;24.10;99.90;;;;;;5023076;28;20277;-47
2023/06/29 10:30:43;;;;;;;23.10;17.15;;;24.10;99.90;;;;;;5006737;28;20282;-41
2023/06/29 10:33:12;;;;;;;23.13;17.77;;;24.00;99.90;;;;;;5014186;28;20214;-46
2023/06/29 10:35:39;;;;;;;28.17;18.25;;;24.00;99.90;;;;;;5019720;28;20474;-45
2023/06/29 10:38:11;;;;;;;26.52;17.50;;;23.90;99.90;;;;;;5015248;28;20228;-47
2023/06/29 10:40:46;;;;;;;28.10;18.17;;;23.80;99.90;;;;;;4996222;28;20203;-44
2023/06/29 10:43:13;;;;;;;26.25;16.67;;;23.80;99.90;;;;;;5007458;28;20239;-47
2023/06/29 10:45:40;;;;;;;27.05;17.20;;;23.60;99.90;;;;;;5021455;28;20188;-45
2023/06/29 10:48:16;;;;;;;19.90;16.15;;;23.50;99.90;;;;;;5014579;28;20196;-45
2023/06/29 10:50:44;;;;;;;21.67;15.77;;;23.40;99.90;;;;;;5020421;28;20204;-45
2023/06/29 10:53:12;;;;;;;26.08;16.85;;;23.40;99.90;;;;;;5010335;28;20741;-45
2023/06/29 10:55:56;;;;;;;24.70;16.75;;;23.30;99.90;;;;;;4995659;28;20410;-44
2023/06/29 10:58:24;;;;;;;26.13;16.50;;;23.30;99.90;;;;;;5009777;28;20690;-43
2023/06/29 11:00:52;;;;;;;25.40;15.70;;;23.20;99.90;;;;;;5022062;28;20196;-44
2023/06/29 11:03:21;;;;;;;22.02;15.50;;;23.30;99.90;;;;;;5013339;28;20255;-46
2023/06/29 11:05:50;;;;;;;20.75;15.15;;;23.30;99.90;;;;;;5015071;28;20266;-45
2023/06/29 11:08:20;;;;;;;24.55;14.98;;;23.30;99.90;;;;;;5009784;28;20586;-44
2023/06/29 11:10:47;;;;;;;22.50;14.38;;;23.40;99.90;;;;;;4992188;28;20285;-42
2023/06/29 11:13:13;;;;;;;21.48;14.30;;;23.40;99.90;;;;;;5006631;28;20362;-44
2023/06/29 11:15:40;;;;;;;19.15;14.52;;;23.40;99.90;;;;;;5020781;28;20200;-43
2023/06/29 11:18:09;;;;;;;18.33;12.50;;;23.40;99.90;;;;;;4998375;28;20254;-45
2023/06/29 11:20:39;;;;;;;19.48;12.68;;;23.30;99.90;;;;;;5019642;28;20666;-45
2023/06/29 11:23:08;;;;;;;18.77;11.70;;;23.30;99.90;;;;;;5016031;28;20936;-41
2023/06/29 11:25:36;;;;;;;18.08;12.27;;;23.30;99.90;;;;;;5015738;28;20874;-42
2023/06/29 11:28:04;;;;;;;15.13;12.10;;;23.40;99.90;;;;;;5005312;28;20204;-47
2023/06/29 11:30:30;;;;;;;17.10;11.88;;;23.50;99.90;;;;;;5010715;28;20659;-46
2023/06/29 11:32:57;;;;;;;17.67;13.40;;;23.40;99.90;;;;;;5011972;28;23210;-46
2023/06/29 11:35:24;;;;;;;18.67;12.00;;;23.30;99.90;;;;;;5020635;28;20592;-45
2023/06/29 11:38:00;;;;;;;22.13;14.00;;;23.30;99.90;;;;;;5015781;28;20200;-43
2023/06/29 11:40:28;;;;;;;22.70;14.88;;;23.30;99.90;;;;;;5008136;28;20913;-43
2023/06/29 11:42:55;;;;;;;21.10;13.93;;;23.20;99.90;;;;;;4989018;28;20275;-44
2023/06/29 11:45:23;;;;;;;19.60;13.57;;;23.10;99.90;;;;;;5006960;28;20641;-48
2023/06/29 11:47:56;;;;;;;20.30;12.73;;;23.20;99.90;;;;;;5005187;28;20228;-42
2023/06/29 11:50:24;;;;;;;16.02;12.90;;;23.20;99.90;;;;;;5014672;28;20216;-45
2023/06/29 11:52:52;;;;;;;16.67;12.25;;;23.20;99.90;;;;;;5015825;28;20208;-41
2023/06/29 11:55:19;;;;;;;17.90;12.02;;;23.20;99.90;;;;;;5015483;28;20353;-46
2023/06/29 11:57:51;;;;;;;14.98;11.30;;;23.30;99.90;;;;;;5000892;28;20215;-44
2023/06/29 12:00:30;;;;;;;22.08;12.02;;;23.40;99.90;;;;;;5015724;28;20204;-44
2023/06/29 12:02:58;;;;;;;19.33;12.52;;;23.40;99.90;;;;;;5017273;28;20307;-42
2023/06/29 12:05:29;;;;;;;14.45;11.40;;;23.30;99.90;;;;;;5004454;28;20281;-46
2023/06/29 12:08:05;;;;;;;14.45;11.77;;;23.30;99.90;;;;;;5022558;28;20184;-42
2023/06/29 12:10:36;;;;;;;17.33;12.77;;;23.40;99.90;;;;;;5016995;28;20211;-43
2023/06/29 12:13:03;;;;;;;18.40;11.68;;;23.40;99.90;;;;;;5020784;28;20211;-43
2023/06/29 12:15:32;;;;;;;18.02;13.05;;;23.40;99.90;;;;;;4988427;28;20239;-43
2023/06/29 12:18:07;;;;;;;19.67;13.35;;;23.30;99.90;;;;;;5011241;28;20592;-44
2023/06/29 12:20:39;;;;;;;17.63;12.32;;;23.40;99.90;;;;;;5001505;28;20675;-42
2023/06/29 12:23:07;;;;;;;19.75;13.25;;;23.30;99.90;;;;;;5022633;28;20220;-43
2023/06/29 12:25:42;;;;;;;19.67;12.80;;;23.30;99.90;;;;;;5016186;28;20184;-48
2023/06/29 12:28:09;;;;;;;26.70;12.93;;;23.30;99.90;;;;;;5013636;28;20210;-43
2023/06/29 12:30:36;;;;;;;19.77;13.30;;;23.30;99.90;;;;;;4993076;28;22674;-42
2023/06/29 12:33:03;;;;;;;21.65;13.52;;;23.30;99.90;;;;;;5016208;28;20223;-45
2023/06/29 12:35:30;;;;;;;19.90;13.55;;;23.30;99.90;;;;;;5006786;28;20204;-45